Time;durP1;ratioP1;P1;durP2;ratioP2;P2;SDS_P1;SDS_P2;PMS_P1;PMS_P2;Temp;Humidity;BMP_temperature;BMP_pressure;BME280_temperature;BME280_humidity;BME280_pressure;Samples;Min_cycle;Max_cycle;Signal;HPM_P1;HPM_P2
2023/12/27 00:01:43;;;;;;;5.85;1.67;;;7.30;99.90;;;;;;5013893;28;20046;-78
2023/12/27 00:04:11;;;;;;;3.40;1.63;;;7.30;99.90;;;;;;5017924;28;20049;-79
2023/12/27 00:06:38;;;;;;;5.82;2.15;;;7.30;99.90;;;;;;5012408;28;20050;-78
2023/12/27 00:09:06;;;;;;;7.32;2.08;;;7.30;99.90;;;;;;5016186;28;20045;-76
2023/12/27 00:11:34;;;;;;;6.35;1.90;;;7.30;99.90;;;;;;5012204;28;20057;-78
2023/12/27 00:14:00;;;;;;;8.75;1.67;;;7.20;99.90;;;;;;5016419;28;20037;-78
2023/12/27 00:16:27;;;;;;;9.85;1.70;;;7.30;99.90;;;;;;5010270;28;20074;-79
2023/12/27 00:18:54;;;;;;;8.52;2.00;;;7.20;99.90;;;;;;5021541;28;20037;-78
2023/12/27 00:21:21;;;;;;;7.13;2.15;;;7.20;99.90;;;;;;5008445;28;20054;-79
2023/12/27 00:23:48;;;;;;;9.85;1.67;;;7.20;99.90;;;;;;5019497;28;20052;-78
2023/12/27 00:26:15;;;;;;;9.25;1.85;;;7.20;99.90;;;;;;5013934;28;20084;-79
2023/12/27 00:28:42;;;;;;;3.33;1.70;;;7.20;99.90;;;;;;5016214;28;20054;-79
2023/12/27 00:31:08;;;;;;;11.75;1.60;;;7.20;99.90;;;;;;5012415;28;20049;-78
2023/12/27 00:33:35;;;;;;;7.13;1.90;;;7.20;99.90;;;;;;5014615;28;20047;-78
2023/12/27 00:36:04;;;;;;;8.75;2.13;;;7.20;99.90;;;;;;5018346;28;20045;-80
2023/12/27 00:38:30;;;;;;;6.57;1.70;;;7.20;99.90;;;;;;5012996;28;20051;-80
2023/12/27 00:40:59;;;;;;;6.28;1.58;;;7.30;99.90;;;;;;5016586;28;20099;-77
2023/12/27 00:43:26;;;;;;;4.50;1.42;;;7.30;99.90;;;;;;5012163;28;20077;-78
2023/12/27 00:45:52;;;;;;;5.68;1.95;;;7.30;99.90;;;;;;4997921;28;20096;-79
2023/12/27 00:48:19;;;;;;;7.03;1.92;;;7.30;99.90;;;;;;5010453;28;20484;-78
2023/12/27 00:50:46;;;;;;;6.72;2.25;;;7.30;99.90;;;;;;5019004;28;20057;-78
2023/12/27 00:53:13;;;;;;;6.35;1.75;;;7.30;99.90;;;;;;5009753;28;20053;-78
2023/12/27 00:55:39;;;;;;;6.25;1.80;;;7.30;99.90;;;;;;5016524;28;20042;-78
2023/12/27 00:58:06;;;;;;;7.07;2.72;;;7.20;99.90;;;;;;5014366;28;20053;-78
2023/12/27 01:00:33;;;;;;;11.00;2.33;;;7.20;99.90;;;;;;5015793;28;20469;-78
2023/12/27 01:03:00;;;;;;;6.03;2.15;;;7.10;99.90;;;;;;5009597;28;20073;-79
2023/12/27 01:05:26;;;;;;;9.57;2.30;;;7.10;99.90;;;;;;5013491;28;20054;-78
2023/12/27 01:07:53;;;;;;;14.05;2.00;;;7.10;99.90;;;;;;5011417;28;20050;-79
2023/12/27 01:10:20;;;;;;;9.32;1.92;;;7.00;99.90;;;;;;5014139;28;20585;-78
2023/12/27 01:12:48;;;;;;;6.63;1.77;;;7.00;99.90;;;;;;5015682;28;20478;-79
2023/12/27 01:15:15;;;;;;;7.82;1.90;;;7.00;99.90;;;;;;5014545;28;20089;-78
2023/12/27 01:17:43;;;;;;;7.28;1.83;;;6.90;99.90;;;;;;5012879;28;20077;-78
2023/12/27 01:20:10;;;;;;;7.45;1.98;;;6.90;99.90;;;;;;5013132;28;20508;-78
2023/12/27 01:22:37;;;;;;;6.13;1.92;;;6.80;99.90;;;;;;5016812;28;20124;-79
2023/12/27 01:25:04;;;;;;;9.95;1.63;;;6.80;99.90;;;;;;5013161;28;20092;-79
2023/12/27 01:27:30;;;;;;;6.28;1.80;;;6.70;99.90;;;;;;5017309;28;20057;-79
2023/12/27 01:29:57;;;;;;;8.88;1.67;;;6.70;99.90;;;;;;5016733;28;20060;-78
2023/12/27 01:32:24;;;;;;;9.82;1.90;;;6.70;99.90;;;;;;5024412;28;20050;-76
2023/12/27 01:34:51;;;;;;;6.47;1.63;;;6.70;99.90;;;;;;5014701;28;20121;-78
2023/12/27 01:37:18;;;;;;;4.30;1.80;;;6.70;99.90;;;;;;5022140;28;20108;-77
2023/12/27 01:39:44;;;;;;;6.72;1.92;;;6.70;99.90;;;;;;5010347;28;20073;-78
2023/12/27 01:42:11;;;;;;;3.50;1.65;;;6.60;99.90;;;;;;5016050;28;20049;-78
2023/12/27 01:44:38;;;;;;;6.30;1.73;;;6.70;99.90;;;;;;5000335;28;20054;-79
2023/12/27 01:47:05;;;;;;;5.45;1.75;;;6.60;99.90;;;;;;5012701;28;20132;-78
2023/12/27 01:49:32;;;;;;;3.58;1.75;;;6.60;99.90;;;;;;5009889;28;20096;-79
2023/12/27 01:51:59;;;;;;;6.30;1.70;;;6.60;99.90;;;;;;5013176;28;20060;-78
2023/12/27 01:54:25;;;;;;;4.57;1.92;;;6.70;99.90;;;;;;5016276;28;20050;-79
2023/12/27 01:56:52;;;;;;;7.32;1.73;;;6.70;99.90;;;;;;4997202;28;20054;-78
2023/12/27 01:59:19;;;;;;;4.53;1.80;;;6.60;99.90;;;;;;5014655;28;20050;-79
2023/12/27 02:01:47;;;;;;;4.38;1.58;;;6.60;99.90;;;;;;5009163;28;20470;-79
2023/12/27 02:04:13;;;;;;;3.85;1.70;;;6.60;99.90;;;;;;5002134;28;20132;-79
2023/12/27 02:06:40;;;;;;;6.53;1.70;;;6.60;99.90;;;;;;5007263;28;20050;-77
2023/12/27 02:09:07;;;;;;;4.38;1.70;;;6.50;99.90;;;;;;5017849;28;20057;-78
2023/12/27 02:11:34;;;;;;;5.40;1.75;;;6.50;99.90;;;;;;5007117;28;20403;-79
2023/12/27 02:14:00;;;;;;;6.93;1.85;;;6.50;99.90;;;;;;5002232;28;20046;-79
2023/12/27 02:16:27;;;;;;;4.68;1.75;;;6.50;99.90;;;;;;5012829;28;20054;-78
2023/12/27 02:18:54;;;;;;;4.00;1.58;;;6.40;99.90;;;;;;5015281;28;20100;-79
2023/12/27 02:21:22;;;;;;;2.10;1.35;;;6.40;99.90;;;;;;5011305;28;20053;-78
2023/12/27 02:23:52;;;;;;;3.03;1.40;;;6.40;99.90;;;;;;5010782;28;20092;-79
2023/12/27 02:26:20;;;;;;;6.45;1.70;;;6.30;99.90;;;;;;5016247;28;20509;-79
2023/12/27 02:28:46;;;;;;;5.15;1.75;;;6.30;99.90;;;;;;5010392;28;20054;-79
2023/12/27 02:31:13;;;;;;;8.00;1.90;;;6.30;99.90;;;;;;5014586;28;20398;-79
2023/12/27 02:33:44;;;;;;;3.50;1.73;;;6.20;99.90;;;;;;5010911;28;20495;-78
2023/12/27 02:36:11;;;;;;;5.03;1.77;;;6.20;99.90;;;;;;5011139;28;20052;-80
2023/12/27 02:38:37;;;;;;;3.60;1.35;;;6.20;99.90;;;;;;5007262;28;20085;-79
2023/12/27 02:41:04;;;;;;;6.55;1.70;;;6.20;99.90;;;;;;5018536;28;20049;-78
2023/12/27 02:43:32;;;;;;;4.38;1.58;;;6.20;99.90;;;;;;5007025;28;20115;-79
2023/12/27 02:45:59;;;;;;;6.85;1.77;;;6.10;99.90;;;;;;5017084;28;20097;-79
2023/12/27 02:48:26;;;;;;;6.95;1.70;;;6.20;99.90;;;;;;5012333;28;20567;-79
2023/12/27 02:50:53;;;;;;;8.40;1.83;;;6.20;99.90;;;;;;5014946;28;20064;-78
2023/12/27 02:53:19;;;;;;;4.57;1.90;;;6.10;99.90;;;;;;5011600;28;20045;-79
2023/12/27 02:55:46;;;;;;;4.82;2.25;;;6.10;99.90;;;;;;5012939;28;20106;-78
2023/12/27 02:58:14;;;;;;;5.18;1.70;;;6.10;99.90;;;;;;5021346;28;20469;-79
2023/12/27 03:00:45;;;;;;;4.97;1.80;;;6.10;99.90;;;;;;5010450;28;20081;-80
2023/12/27 03:03:13;;;;;;;4.07;1.73;;;6.10;99.90;;;;;;5015704;28;20136;-78
2023/12/27 03:05:40;;;;;;;6.93;2.70;;;6.10;99.90;;;;;;5012659;28;20056;-79
2023/12/27 03:08:06;;;;;;;8.70;2.22;;;6.10;99.90;;;;;;5015040;28;20464;-78
2023/12/27 03:10:33;;;;;;;8.60;2.22;;;6.10;99.90;;;;;;5010007;28;20054;-79
2023/12/27 03:13:00;;;;;;;6.63;1.92;;;6.10;99.90;;;;;;5022279;28;20061;-80
2023/12/27 03:15:27;;;;;;;4.78;1.73;;;6.10;99.90;;;;;;5014414;28;20173;-79
2023/12/27 03:17:53;;;;;;;4.88;1.85;;;6.10;99.90;;;;;;5023316;28;20043;-79
2023/12/27 03:20:20;;;;;;;4.72;2.40;;;6.10;99.90;;;;;;4999930;28;20049;-79
2023/12/27 03:22:47;;;;;;;4.95;2.63;;;6.10;99.90;;;;;;5006082;28;20050;-78
2023/12/27 03:25:14;;;;;;;3.55;1.83;;;6.10;99.90;;;;;;5021201;28;20073;-77
2023/12/27 03:27:40;;;;;;;3.35;1.70;;;6.10;99.90;;;;;;5010218;28;20054;-79
2023/12/27 03:30:08;;;;;;;6.63;1.60;;;6.10;99.90;;;;;;5018754;28;20124;-77
2023/12/27 03:32:35;;;;;;;6.70;1.88;;;6.10;99.90;;;;;;5014525;28;20041;-78
2023/12/27 03:35:02;;;;;;;6.10;1.95;;;6.10;99.90;;;;;;5025730;28;20113;-78
2023/12/27 03:37:29;;;;;;;4.47;2.20;;;6.00;99.90;;;;;;5014449;28;20137;-77
2023/12/27 03:39:55;;;;;;;4.80;2.10;;;6.00;99.90;;;;;;5013217;28;20196;-77
2023/12/27 03:42:22;;;;;;;6.53;1.67;;;6.00;99.90;;;;;;5014307;28;20100;-78
2023/12/27 03:44:52;;;;;;;3.75;1.80;;;6.00;99.90;;;;;;5020207;28;20057;-78
2023/12/27 03:47:20;;;;;;;5.38;1.90;;;5.90;99.90;;;;;;5013091;28;20132;-79
2023/12/27 03:49:47;;;;;;;8.80;1.90;;;5.90;99.90;;;;;;5017154;28;20133;-78
2023/12/27 03:52:13;;;;;;;7.80;2.40;;;5.90;99.90;;;;;;5003391;28;20552;-78
2023/12/27 03:54:41;;;;;;;3.17;1.83;;;5.80;99.90;;;;;;4997888;28;20485;-79
2023/12/27 03:57:08;;;;;;;8.60;1.95;;;5.80;99.90;;;;;;5015343;28;20049;-78
2023/12/27 03:59:38;;;;;;;8.05;1.90;;;5.80;99.90;;;;;;5018485;28;20048;-79
2023/12/27 04:02:05;;;;;;;5.60;2.17;;;5.70;99.90;;;;;;5013375;28;20049;-78
2023/12/27 04:04:33;;;;;;;4.15;1.80;;;5.70;99.90;;;;;;5017725;28;20492;-78
2023/12/27 04:07:00;;;;;;;5.18;1.80;;;5.60;99.90;;;;;;5010648;28;20105;-78
2023/12/27 04:09:27;;;;;;;7.10;2.47;;;5.50;99.90;;;;;;5015545;28;20081;-79
2023/12/27 04:11:53;;;;;;;5.43;1.67;;;5.50;99.90;;;;;;5014879;28;20498;-78
2023/12/27 04:14:20;;;;;;;3.47;1.90;;;5.50;99.90;;;;;;5020190;28;20387;-79
2023/12/27 04:16:47;;;;;;;7.05;2.10;;;5.40;99.90;;;;;;5024493;28;20100;-79
2023/12/27 04:19:14;;;;;;;5.30;1.80;;;5.40;99.90;;;;;;5028333;28;20049;-79
2023/12/27 04:21:42;;;;;;;9.93;1.98;;;5.40;99.90;;;;;;5005827;28;20046;-78
2023/12/27 04:24:09;;;;;;;4.00;1.73;;;5.40;99.90;;;;;;5014376;28;20109;-78
2023/12/27 04:26:41;;;;;;;6.50;2.00;;;5.40;99.90;;;;;;5016704;28;20053;-77
2023/12/27 04:29:08;;;;;;;6.35;1.85;;;5.40;99.90;;;;;;5010043;28;20050;-79
2023/12/27 04:31:39;;;;;;;6.28;1.70;;;5.40;99.90;;;;;;5014648;28;20050;-78
2023/12/27 04:34:06;;;;;;;4.47;1.73;;;5.30;99.90;;;;;;5011440;28;20097;-78
2023/12/27 04:36:35;;;;;;;4.80;1.77;;;5.30;99.90;;;;;;5023020;28;20092;-78
2023/12/27 04:39:02;;;;;;;6.40;2.00;;;5.30;99.90;;;;;;5015485;28;20042;-78
2023/12/27 04:41:29;;;;;;;4.78;1.60;;;5.30;99.90;;;;;;5014765;28;20129;-79
2023/12/27 04:43:56;;;;;;;7.55;3.25;;;5.30;99.90;;;;;;5018560;28;20500;-78
2023/12/27 04:46:22;;;;;;;9.63;1.95;;;5.30;99.90;;;;;;5016084;28;20513;-78
2023/12/27 04:48:49;;;;;;;4.78;2.00;;;5.40;99.90;;;;;;5017515;28;20081;-79
2023/12/27 04:51:16;;;;;;;5.60;1.90;;;5.40;99.90;;;;;;5014118;28;20046;-78
2023/12/27 04:53:43;;;;;;;6.38;2.15;;;5.40;99.90;;;;;;5025870;28;20057;-79
2023/12/27 04:56:10;;;;;;;7.50;2.15;;;5.40;99.90;;;;;;5012867;28;20051;-78
2023/12/27 04:58:37;;;;;;;4.45;1.70;;;5.40;99.90;;;;;;5016555;28;20077;-78
2023/12/27 05:01:05;;;;;;;7.63;1.75;;;5.40;99.90;;;;;;5022206;28;20041;-79
2023/12/27 05:03:37;;;;;;;5.03;1.58;;;5.40;99.90;;;;;;5016480;28;20050;-80
2023/12/27 05:06:08;;;;;;;1.85;1.50;;;5.40;99.90;;;;;;5009311;28;20081;-80
2023/12/27 05:08:41;;;;;;;4.50;1.67;;;5.40;99.90;;;;;;5020485;28;20565;-79
2023/12/27 05:11:11;;;;;;;6.30;2.15;;;5.30;99.90;;;;;;5021443;28;20443;-79
2023/12/27 05:13:39;;;;;;;4.65;1.88;;;5.30;99.90;;;;;;4996121;28;20518;-80
2023/12/27 05:16:10;;;;;;;7.07;1.77;;;5.30;99.90;;;;;;5017668;28;20073;-78
2023/12/27 05:18:38;;;;;;;9.00;2.05;;;5.30;99.90;;;;;;5014726;28;20560;-78
2023/12/27 05:21:06;;;;;;;4.28;1.88;;;5.20;99.90;;;;;;5016485;28;20081;-78
2023/12/27 05:23:33;;;;;;;8.85;2.40;;;5.20;99.90;;;;;;5013056;28;20049;-79
2023/12/27 05:26:01;;;;;;;7.38;2.55;;;5.20;99.90;;;;;;5017864;28;20069;-79
2023/12/27 05:28:28;;;;;;;4.82;2.30;;;5.10;99.90;;;;;;5014508;28;20556;-79
2023/12/27 05:30:54;;;;;;;3.78;1.80;;;5.10;99.90;;;;;;5014149;28;20072;-78
2023/12/27 05:33:23;;;;;;;5.00;2.05;;;5.00;99.90;;;;;;5011579;28;20057;-79
2023/12/27 05:35:51;;;;;;;5.75;2.03;;;5.10;99.90;;;;;;5016024;28;20391;-77
2023/12/27 05:38:17;;;;;;;12.85;3.70;;;5.10;99.90;;;;;;5019822;28;20111;-79
2023/12/27 05:40:44;;;;;;;6.55;2.88;;;5.10;99.90;;;;;;5011272;28;20462;-78
2023/12/27 05:43:11;;;;;;;6.47;2.63;;;5.10;99.90;;;;;;5012402;28;20081;-78
2023/12/27 05:45:37;;;;;;;6.80;3.30;;;5.10;99.90;;;;;;5013806;28;20073;-79
2023/12/27 05:48:04;;;;;;;6.47;3.80;;;5.10;99.90;;;;;;4995787;28;20050;-79
2023/12/27 05:50:32;;;;;;;3.75;2.95;;;5.20;99.90;;;;;;5014222;28;20145;-78
2023/12/27 05:52:59;;;;;;;5.65;3.10;;;5.20;99.90;;;;;;5010136;28;20100;-79
2023/12/27 05:55:25;;;;;;;5.65;3.17;;;5.20;99.90;;;;;;5017336;28;20076;-78
2023/12/27 05:57:52;;;;;;;3.35;2.60;;;5.20;99.90;;;;;;5023220;28;20509;-78
2023/12/27 06:00:19;;;;;;;7.88;2.95;;;5.20;99.90;;;;;;5012032;28;20569;-78
2023/12/27 06:02:46;;;;;;;9.57;2.65;;;5.10;99.90;;;;;;5015963;28;20388;-79
2023/12/27 06:05:13;;;;;;;9.68;2.28;;;5.20;99.90;;;;;;5015113;28;20116;-79
2023/12/27 06:07:40;;;;;;;4.00;1.67;;;5.20;99.90;;;;;;5019254;28;20132;-79
2023/12/27 06:10:07;;;;;;;6.95;2.55;;;5.10;99.90;;;;;;4991250;28;20105;-78
2023/12/27 06:12:34;;;;;;;3.50;2.33;;;5.10;99.90;;;;;;5020366;28;20084;-79
2023/12/27 06:15:02;;;;;;;4.95;2.45;;;5.10;99.90;;;;;;5008837;28;20514;-78
2023/12/27 06:17:29;;;;;;;7.13;2.45;;;5.10;99.90;;;;;;5017115;28;20053;-79
2023/12/27 06:19:55;;;;;;;9.50;2.00;;;5.00;99.90;;;;;;5011329;28;20069;-80
2023/12/27 06:22:22;;;;;;;6.50;2.05;;;5.00;99.90;;;;;;5026071;28;20697;-79
2023/12/27 06:24:49;;;;;;;5.55;2.28;;;5.00;99.90;;;;;;4986931;28;20089;-80
2023/12/27 06:27:16;;;;;;;2.83;1.85;;;5.00;99.90;;;;;;5014131;28;20050;-78
2023/12/27 06:29:42;;;;;;;4.75;2.33;;;5.00;99.90;;;;;;5016880;28;20057;-79
2023/12/27 06:32:09;;;;;;;6.57;2.53;;;4.90;99.90;;;;;;5010880;28;20097;-79
2023/12/27 06:34:36;;;;;;;2.15;1.73;;;4.90;99.90;;;;;;5015823;28;20489;-78
2023/12/27 06:37:03;;;;;;;8.18;3.65;;;4.90;99.90;;;;;;5008899;28;20052;-79
2023/12/27 06:39:30;;;;;;;16.02;5.07;;;4.80;99.90;;;;;;5020773;28;20084;-79
2023/12/27 06:41:57;;;;;;;19.33;9.02;;;4.80;99.90;;;;;;5009755;28;20038;-79
2023/12/27 06:44:24;;;;;;;28.35;12.05;;;4.80;99.90;;;;;;5019018;28;20052;-79
2023/12/27 06:46:50;;;;;;;32.22;12.10;;;4.80;99.90;;;;;;5006978;28;20502;-80
2023/12/27 06:49:17;;;;;;;17.17;7.45;;;4.80;99.90;;;;;;5017635;28;20081;-78
2023/12/27 06:51:44;;;;;;;12.73;5.18;;;4.80;99.90;;;;;;5022832;28;20045;-79
2023/12/27 06:54:11;;;;;;;10.00;4.80;;;4.70;99.90;;;;;;5000614;28;20105;-78
2023/12/27 06:56:39;;;;;;;22.10;6.70;;;4.70;99.90;;;;;;5011441;28;20041;-78
2023/12/27 06:59:07;;;;;;;14.95;5.80;;;4.70;99.90;;;;;;5013018;28;20057;-77
2023/12/27 07:01:34;;;;;;;7.90;3.95;;;4.70;99.90;;;;;;5019860;28;20165;-77
2023/12/27 07:04:02;;;;;;;3.60;2.13;;;4.70;99.90;;;;;;5017385;28;20129;-78
2023/12/27 07:06:29;;;;;;;5.15;2.15;;;4.70;99.90;;;;;;5026825;28;20042;-79
2023/12/27 07:08:56;;;;;;;4.18;1.80;;;4.70;99.90;;;;;;5019475;28;20046;-78
2023/12/27 07:11:23;;;;;;;3.00;1.90;;;4.70;99.90;;;;;;5018158;28;20049;-78
2023/12/27 07:13:50;;;;;;;5.32;2.10;;;4.70;99.90;;;;;;4998595;28;20046;-78
2023/12/27 07:16:16;;;;;;;5.53;2.70;;;4.70;99.90;;;;;;5006918;28;20061;-79
2023/12/27 07:18:43;;;;;;;8.07;4.88;;;4.70;99.90;;;;;;4992683;28;20088;-77
2023/12/27 07:21:11;;;;;;;7.50;3.75;;;4.70;99.90;;;;;;5016129;28;20046;-77
2023/12/27 07:23:38;;;;;;;8.80;4.07;;;4.80;99.90;;;;;;5010618;28;20077;-79
2023/12/27 07:26:10;;;;;;;9.07;4.80;;;4.80;99.90;;;;;;5000913;28;20063;-78
2023/12/27 07:28:37;;;;;;;9.55;4.05;;;4.80;99.90;;;;;;5007746;28;20105;-78
2023/12/27 07:31:03;;;;;;;5.80;4.03;;;4.80;99.90;;;;;;5012541;28;20054;-79
2023/12/27 07:33:30;;;;;;;10.18;4.25;;;4.80;99.90;;;;;;5017523;28;20049;-78
2023/12/27 07:35:57;;;;;;;5.85;3.47;;;4.80;99.90;;;;;;5010722;28;20080;-78
2023/12/27 07:38:25;;;;;;;6.88;4.45;;;4.90;99.90;;;;;;5014164;28;20046;-78
2023/12/27 07:40:51;;;;;;;9.13;4.40;;;4.80;99.90;;;;;;5010946;28;20128;-79
2023/12/27 07:43:22;;;;;;;9.35;4.95;;;4.80;99.90;;;;;;5012690;28;20052;-78
2023/12/27 07:45:48;;;;;;;6.72;4.70;;;4.80;99.90;;;;;;5007954;28;20395;-79
2023/12/27 07:48:15;;;;;;;8.50;4.22;;;4.80;99.90;;;;;;5012266;28;20085;-78
2023/12/27 07:50:42;;;;;;;12.00;3.88;;;4.80;99.90;;;;;;5021015;28;20049;-78
2023/12/27 07:53:09;;;;;;;7.82;3.55;;;4.80;99.90;;;;;;5017066;28;20050;-78
2023/12/27 07:55:36;;;;;;;8.27;4.10;;;4.70;99.90;;;;;;5015765;28;20460;-79
2023/12/27 07:58:04;;;;;;;7.55;3.38;;;4.80;99.90;;;;;;5017308;28;20074;-79
2023/12/27 08:00:31;;;;;;;5.55;2.90;;;4.80;99.90;;;;;;5012693;28;20053;-78
2023/12/27 08:02:58;;;;;;;3.97;2.85;;;4.80;99.90;;;;;;5018187;28;20105;-80
2023/12/27 08:05:25;;;;;;;8.75;2.75;;;4.80;99.90;;;;;;5015335;28;20387;-80
2023/12/27 08:07:52;;;;;;;8.38;3.35;;;4.80;99.90;;;;;;5022577;28;20128;-78
2023/12/27 08:10:19;;;;;;;7.53;3.10;;;4.80;99.90;;;;;;5017964;28;20054;-79
2023/12/27 08:12:46;;;;;;;7.72;3.65;;;4.90;99.90;;;;;;4994046;28;20058;-79
2023/12/27 08:15:13;;;;;;;10.63;4.38;;;4.90;99.90;;;;;;5016338;28;20490;-79
2023/12/27 08:17:40;;;;;;;7.47;4.10;;;4.90;99.90;;;;;;5014994;28;20133;-79
2023/12/27 08:20:08;;;;;;;17.42;4.55;;;4.90;99.90;;;;;;5017385;28;20050;-78
2023/12/27 08:22:35;;;;;;;9.00;3.55;;;5.00;99.90;;;;;;5012186;28;20096;-79
2023/12/27 08:25:04;;;;;;;7.88;3.45;;;5.00;99.90;;;;;;5017399;28;20042;-80
2023/12/27 08:27:31;;;;;;;10.52;4.80;;;5.10;99.90;;;;;;5015897;28;20049;-79
2023/12/27 08:29:58;;;;;;;9.98;2.78;;;5.10;99.90;;;;;;5018935;28;20050;-78
2023/12/27 08:32:25;;;;;;;5.95;2.55;;;5.10;99.90;;;;;;5003943;28;20254;-78
2023/12/27 08:34:52;;;;;;;5.25;2.90;;;5.20;99.90;;;;;;5019297;28;20046;-81
2023/12/27 08:37:18;;;;;;;7.38;2.95;;;5.30;99.90;;;;;;5011327;28;20050;-79
2023/12/27 08:39:45;;;;;;;7.43;3.78;;;5.30;99.90;;;;;;5018358;28;20104;-79
2023/12/27 08:42:12;;;;;;;7.93;2.80;;;5.40;99.90;;;;;;5014353;28;20100;-79
2023/12/27 08:44:38;;;;;;;9.27;4.00;;;5.40;99.90;;;;;;5018753;28;20099;-79
2023/12/27 08:47:05;;;;;;;5.88;3.55;;;5.40;99.90;;;;;;5013778;28;20058;-80
2023/12/27 08:49:32;;;;;;;6.50;3.78;;;5.50;99.90;;;;;;5017127;28;20045;-79
2023/12/27 08:51:59;;;;;;;10.88;3.72;;;5.40;99.90;;;;;;5010867;28;20047;-80
2023/12/27 08:54:26;;;;;;;8.13;3.15;;;5.40;99.90;;;;;;5015125;28;20081;-79
2023/12/27 08:56:52;;;;;;;7.20;3.78;;;5.40;99.90;;;;;;5019111;28;20044;-80
2023/12/27 08:59:19;;;;;;;10.57;4.03;;;5.40;99.90;;;;;;5011848;28;20080;-80
2023/12/27 09:01:46;;;;;;;12.88;4.50;;;5.50;99.90;;;;;;5018746;28;20413;-80
2023/12/27 09:04:12;;;;;;;11.90;5.05;;;5.50;99.90;;;;;;4997542;28;20078;-80
2023/12/27 09:06:39;;;;;;;11.48;4.93;;;5.60;99.90;;;;;;5022529;28;20099;-80
2023/12/27 09:09:06;;;;;;;12.40;4.35;;;5.60;99.90;;;;;;5009563;28;20074;-80
2023/12/27 09:11:33;;;;;;;11.88;4.95;;;5.70;99.90;;;;;;5020500;28;20421;-80
2023/12/27 09:14:08;;;;;;;8.85;4.18;;;5.80;99.90;;;;;;5016569;28;20049;-79
2023/12/27 09:16:35;;;;;;;9.25;4.18;;;5.90;99.90;;;;;;5021484;28;20137;-78
2023/12/27 09:19:02;;;;;;;7.85;4.13;;;5.90;99.90;;;;;;5016365;28;20045;-79
2023/12/27 09:21:29;;;;;;;8.25;3.47;;;6.00;99.90;;;;;;5011512;28;20047;-80
2023/12/27 09:23:57;;;;;;;7.25;3.08;;;6.00;99.90;;;;;;5024961;28;20041;-79
2023/12/27 09:26:24;;;;;;;6.57;3.30;;;6.10;99.90;;;;;;5029188;28;20482;-79
2023/12/27 09:28:50;;;;;;;11.73;3.53;;;6.10;99.90;;;;;;5029259;28;20500;-79
2023/12/27 09:31:17;;;;;;;9.93;3.80;;;6.10;99.90;;;;;;5015842;28;20070;-79
2023/12/27 09:33:45;;;;;;;6.63;3.58;;;6.10;99.90;;;;;;5022553;28;20053;-79
2023/12/27 09:36:12;;;;;;;8.38;3.70;;;6.10;99.90;;;;;;5015244;28;20050;-79
2023/12/27 09:38:39;;;;;;;8.55;4.28;;;6.10;99.90;;;;;;5020210;28;20080;-80
2023/12/27 09:41:07;;;;;;;9.45;3.85;;;6.10;99.90;;;;;;4997880;28;20129;-79
2023/12/27 09:43:36;;;;;;;5.53;3.33;;;6.10;99.90;;;;;;5021480;28;20076;-80
2023/12/27 09:46:04;;;;;;;8.52;4.10;;;6.20;99.90;;;;;;5015138;28;20081;-80
2023/12/27 09:48:32;;;;;;;7.47;4.60;;;6.10;99.90;;;;;;5004934;28;20092;-79
2023/12/27 09:50:59;;;;;;;5.95;3.22;;;6.10;99.90;;;;;;5015631;28;20045;-79
2023/12/27 09:53:26;;;;;;;8.38;3.30;;;6.20;99.90;;;;;;5020526;28;20078;-78
2023/12/27 09:55:55;;;;;;;5.00;3.13;;;6.10;99.90;;;;;;5015495;28;20140;-78
2023/12/27 09:58:27;;;;;;;11.40;3.75;;;6.10;99.90;;;;;;5014692;28;20057;-81
2023/12/27 10:01:01;;;;;;;7.45;3.60;;;6.20;99.90;;;;;;5017413;28;20115;-79
2023/12/27 10:03:37;;;;;;;11.55;4.57;;;6.10;99.90;;;;;;5011700;28;20050;-79
2023/12/27 10:06:34;;;;;;;8.40;4.45;;;6.20;99.90;;;;;;5015134;28;20045;-78
2023/12/27 10:09:01;;;;;;;7.20;4.55;;;6.20;99.90;;;;;;5014460;28;20042;-81
2023/12/27 10:11:30;;;;;;;10.13;4.43;;;6.20;99.90;;;;;;5014990;28;20054;-79
2023/12/27 10:13:57;;;;;;;15.52;5.07;;;6.20;99.90;;;;;;5001437;28;20277;-79
2023/12/27 10:16:23;;;;;;;8.15;4.13;;;6.20;99.90;;;;;;4998512;28;20082;-80
2023/12/27 10:18:50;;;;;;;9.38;4.05;;;6.30;99.90;;;;;;5021196;28;20099;-80
2023/12/27 10:21:18;;;;;;;10.40;4.43;;;6.30;99.90;;;;;;5010442;28;20142;-79
2023/12/27 10:23:45;;;;;;;9.30;4.53;;;6.30;99.90;;;;;;5011966;28;20103;-79
2023/12/27 10:26:12;;;;;;;9.55;5.32;;;6.30;99.90;;;;;;5010133;28;20113;-80
2023/12/27 10:28:39;;;;;;;8.68;4.38;;;6.40;99.90;;;;;;5015348;28;20553;-79
2023/12/27 10:31:06;;;;;;;9.68;4.30;;;6.50;99.90;;;;;;5008366;28;20536;-79
2023/12/27 10:33:41;;;;;;;9.43;4.38;;;6.50;99.90;;;;;;5018757;28;20082;-80
2023/12/27 10:36:09;;;;;;;5.88;3.33;;;6.60;99.90;;;;;;5007368;28;20050;-79
2023/12/27 10:38:37;;;;;;;6.40;4.25;;;6.60;99.90;;;;;;5015075;28;20061;-79
2023/12/27 10:41:06;;;;;;;9.48;5.03;;;6.70;99.90;;;;;;5000971;28;20053;-79
2023/12/27 10:43:33;;;;;;;9.23;3.60;;;6.70;99.90;;;;;;5011481;28;20054;-79
2023/12/27 10:46:07;;;;;;;7.15;3.40;;;6.80;99.90;;;;;;5013104;28;20096;-80
2023/12/27 10:48:37;;;;;;;7.93;3.83;;;6.80;99.90;;;;;;5015493;28;20058;-79
2023/12/27 10:51:06;;;;;;;5.88;3.10;;;6.90;99.90;;;;;;5018878;28;20049;-80
2023/12/27 10:53:37;;;;;;;6.10;3.70;;;7.00;99.90;;;;;;5013227;28;20112;-80
2023/12/27 10:56:04;;;;;;;9.45;4.38;;;7.00;99.90;;;;;;5017621;28;20096;-79
2023/12/27 10:58:31;;;;;;;5.38;3.88;;;7.10;99.90;;;;;;5009916;28;20076;-79
2023/12/27 11:00:59;;;;;;;6.30;4.03;;;7.10;99.90;;;;;;5007011;28;20081;-79
2023/12/27 11:03:29;;;;;;;9.15;3.47;;;7.20;99.90;;;;;;5010255;28;20046;-79
2023/12/27 11:05:59;;;;;;;6.95;3.00;;;7.20;99.90;;;;;;5013960;28;20096;-79
2023/12/27 11:08:27;;;;;;;4.55;2.90;;;7.30;99.90;;;;;;5007171;28;20514;-79
2023/12/27 11:10:54;;;;;;;6.35;2.70;;;7.30;99.90;;;;;;5015828;28;20100;-80
2023/12/27 11:13:25;;;;;;;4.30;2.78;;;7.40;99.90;;;;;;5011518;28;20085;-80
2023/12/27 11:15:54;;;;;;;5.93;3.33;;;7.40;99.90;;;;;;5015713;28;20045;-79
2023/12/27 11:18:23;;;;;;;8.65;3.75;;;7.50;99.90;;;;;;5005048;28;20392;-80
2023/12/27 11:20:51;;;;;;;4.68;3.22;;;7.60;99.90;;;;;;5013712;28;20100;-80
2023/12/27 11:23:18;;;;;;;5.45;2.72;;;7.60;99.90;;;;;;5009750;28;20046;-79
2023/12/27 11:25:46;;;;;;;5.78;3.20;;;7.70;99.90;;;;;;5013431;28;20466;-79
2023/12/27 11:28:13;;;;;;;4.43;1.98;;;7.70;99.90;;;;;;4998965;28;20054;-80
2023/12/27 11:30:40;;;;;;;5.80;2.30;;;7.80;99.90;;;;;;5011396;28;20046;-79
2023/12/27 11:33:07;;;;;;;6.50;3.40;;;7.90;99.90;;;;;;5019485;28;20417;-79
2023/12/27 11:35:35;;;;;;;6.30;3.53;;;8.00;99.90;;;;;;5014426;28;20050;-81
2023/12/27 11:38:19;;;;;;;7.45;3.60;;;8.10;99.90;;;;;;5022362;28;20073;-80
2023/12/27 11:40:47;;;;;;;6.68;3.13;;;8.10;99.90;;;;;;5016158;28;20351;-79
2023/12/27 11:43:25;;;;;;;4.63;2.83;;;8.20;99.90;;;;;;5017503;28;20310;-79
2023/12/27 11:45:58;;;;;;;4.03;2.15;;;8.30;99.90;;;;;;5013366;28;20233;-80
2023/12/27 11:48:27;;;;;;;4.32;2.05;;;8.40;99.90;;;;;;5018645;28;20056;-79
2023/12/27 11:50:56;;;;;;;4.05;1.63;;;8.50;99.90;;;;;;5015822;28;20099;-80
2023/12/27 11:53:27;;;;;;;4.53;1.92;;;8.60;99.90;;;;;;5013514;28;20057;-80
2023/12/27 11:55:54;;;;;;;;;;;8.60;99.90;;;;;;5015424;28;20041;-79
2023/12/27 11:58:35;;;;;;;3.97;1.52;;;8.70;99.90;;;;;;4999373;28;19928;-80
2023/12/27 12:01:24;;;;;;;4.10;1.75;;;8.90;99.90;;;;;;5017497;28;20117;-79
2023/12/27 12:04:10;;;;;;;6.18;2.08;;;9.00;99.90;;;;;;5016226;28;20513;-79
2023/12/27 12:07:06;;;;;;;2.80;1.63;;;9.10;99.90;;;;;;5016740;28;20076;-79
2023/12/27 12:09:44;;;;;;;6.47;2.05;;;9.20;99.90;;;;;;5021333;28;20065;-79
2023/12/27 12:12:22;;;;;;;3.88;2.05;;;9.30;99.90;;;;;;4997391;28;20049;-81
2023/12/27 12:14:53;;;;;;;2.83;2.05;;;9.40;99.90;;;;;;5022786;28;20457;-80
2023/12/27 12:17:24;;;;;;;3.05;2.10;;;9.40;99.90;;;;;;5009677;28;20047;-81
2023/12/27 12:19:51;;;;;;;6.72;2.20;;;9.50;99.90;;;;;;5004152;28;20046;-81
2023/12/27 12:22:19;;;;;;;3.40;1.95;;;9.50;99.90;;;;;;5015862;28;20483;-80
2023/12/27 12:24:46;;;;;;;6.90;2.42;;;9.60;99.90;;;;;;5019546;28;20111;-79
2023/12/27 12:27:13;;;;;;;4.55;1.98;;;9.60;99.90;;;;;;5015695;28;20049;-80
2023/12/27 12:29:41;;;;;;;8.50;2.35;;;9.60;99.90;;;;;;5015953;28;20050;-79
2023/12/27 12:32:08;;;;;;;3.60;1.40;;;9.70;99.90;;;;;;5022633;28;20161;-81
2023/12/27 12:34:34;;;;;;;3.45;1.75;;;9.70;99.90;;;;;;5014960;28;20054;-80
2023/12/27 12:37:01;;;;;;;4.55;1.92;;;9.70;99.90;;;;;;5019623;28;20041;-80
2023/12/27 12:39:28;;;;;;;2.72;1.73;;;9.70;99.90;;;;;;5000057;28;20111;-80
2023/12/27 12:41:55;;;;;;;5.65;2.53;;;9.80;99.90;;;;;;5025178;28;20081;-80
2023/12/27 12:44:22;;;;;;;3.38;1.88;;;9.80;99.90;;;;;;4998898;28;20084;-81
2023/12/27 12:46:49;;;;;;;4.18;2.22;;;9.80;99.90;;;;;;5026738;28;20045;-79
2023/12/27 12:49:16;;;;;;;3.80;1.90;;;9.80;99.90;;;;;;5015330;28;20062;-79
2023/12/27 12:51:44;;;;;;;8.40;2.22;;;9.80;99.90;;;;;;5020487;28;20133;-79
2023/12/27 12:54:11;;;;;;;3.28;1.90;;;9.80;99.90;;;;;;5015824;28;20056;-80
2023/12/27 12:56:39;;;;;;;6.90;2.30;;;9.80;99.90;;;;;;5018711;28;20053;-79
2023/12/27 12:59:07;;;;;;;2.67;2.00;;;9.80;99.90;;;;;;5015174;28;20054;-79